sensor_id;sensor_type;location;lat;lon;timestamp;temperature;humidity
18882;DHT22;9573;50.948;11.600;2023-10-13T00:02:11;16.70;99.90
18882;DHT22;9573;50.948;11.600;2023-10-13T00:04:39;16.70;99.90
18882;DHT22;9573;50.948;11.600;2023-10-13T00:07:07;16.70;99.90
18882;DHT22;9573;50.948;11.600;2023-10-13T00:09:35;16.70;99.90
18882;DHT22;9573;50.948;11.600;2023-10-13T00:12:04;16.70;99.90
18882;DHT22;9573;50.948;11.600;2023-10-13T00:14:34;16.70;99.90
18882;DHT22;9573;50.948;11.600;2023-10-13T00:17:05;16.70;99.90
18882;DHT22;9573;50.948;11.600;2023-10-13T00:19:35;16.60;99.90
18882;DHT22;9573;50.948;11.600;2023-10-13T00:22:12;16.60;99.90
18882;DHT22;9573;50.948;11.600;2023-10-13T00:24:42;16.50;99.90
18882;DHT22;9573;50.948;11.600;2023-10-13T00:27:12;16.50;99.90
18882;DHT22;9573;50.948;11.600;2023-10-13T00:29:55;16.60;99.90
18882;DHT22;9573;50.948;11.600;2023-10-13T00:32:38;16.60;99.90
18882;DHT22;9573;50.948;11.600;2023-10-13T00:35:09;16.60;99.90
18882;DHT22;9573;50.948;11.600;2023-10-13T00:37:39;16.60;99.90
18882;DHT22;9573;50.948;11.600;2023-10-13T00:40:10;16.50;99.90
18882;DHT22;9573;50.948;11.600;2023-10-13T00:43:01;16.50;99.90
18882;DHT22;9573;50.948;11.600;2023-10-13T00:45:56;16.60;99.90
18882;DHT22;9573;50.948;11.600;2023-10-13T00:48:29;16.60;99.90
18882;DHT22;9573;50.948;11.600;2023-10-13T00:51:00;16.60;99.90
18882;DHT22;9573;50.948;11.600;2023-10-13T00:53:29;16.60;99.90
18882;DHT22;9573;50.948;11.600;2023-10-13T00:55:59;16.60;99.90
18882;DHT22;9573;50.948;11.600;2023-10-13T00:58:32;16.60;99.90
18882;DHT22;9573;50.948;11.600;2023-10-13T01:01:01;16.60;99.90
18882;DHT22;9573;50.948;11.600;2023-10-13T01:03:45;16.60;99.90
18882;DHT22;9573;50.948;11.600;2023-10-13T01:06:16;16.60;99.90
18882;DHT22;9573;50.948;11.600;2023-10-13T01:08:45;16.60;99.90
18882;DHT22;9573;50.948;11.600;2023-10-13T01:11:17;16.50;99.90
18882;DHT22;9573;50.948;11.600;2023-10-13T01:13:44;16.40;99.90
18882;DHT22;9573;50.948;11.600;2023-10-13T01:16:16;16.30;99.90
18882;DHT22;9573;50.948;11.600;2023-10-13T01:18:42;16.30;99.90
18882;DHT22;9573;50.948;11.600;2023-10-13T01:21:15;16.30;99.90
18882;DHT22;9573;50.948;11.600;2023-10-13T01:23:44;16.30;99.90
18882;DHT22;9573;50.948;11.600;2023-10-13T01:26:13;16.40;99.90
18882;DHT22;9573;50.948;11.600;2023-10-13T01:28:43;16.50;99.90
18882;DHT22;9573;50.948;11.600;2023-10-13T01:31:14;16.50;99.90
18882;DHT22;9573;50.948;11.600;2023-10-13T01:33:50;16.60;99.90
18882;DHT22;9573;50.948;11.600;2023-10-13T01:36:21;16.60;99.90
18882;DHT22;9573;50.948;11.600;2023-10-13T01:38:52;16.70;99.90
18882;DHT22;9573;50.948;11.600;2023-10-13T01:41:19;16.60;99.90
18882;DHT22;9573;50.948;11.600;2023-10-13T01:43:47;16.60;99.90
18882;DHT22;9573;50.948;11.600;2023-10-13T01:46:14;16.50;99.90
18882;DHT22;9573;50.948;11.600;2023-10-13T01:48:45;16.50;99.90
18882;DHT22;9573;50.948;11.600;2023-10-13T01:51:12;16.70;99.90
18882;DHT22;9573;50.948;11.600;2023-10-13T01:53:40;16.40;99.90
18882;DHT22;9573;50.948;11.600;2023-10-13T01:56:09;16.30;99.90
18882;DHT22;9573;50.948;11.600;2023-10-13T01:58:40;16.10;99.90
18882;DHT22;9573;50.948;11.600;2023-10-13T02:01:08;16.20;99.90
18882;DHT22;9573;50.948;11.600;2023-10-13T02:03:36;16.20;99.90
18882;DHT22;9573;50.948;11.600;2023-10-13T02:06:12;16.10;99.90
18882;DHT22;9573;50.948;11.600;2023-10-13T02:08:43;16.10;99.90
18882;DHT22;9573;50.948;11.600;2023-10-13T02:11:14;16.10;99.90
18882;DHT22;9573;50.948;11.600;2023-10-13T02:13:44;16.20;99.90
18882;DHT22;9573;50.948;11.600;2023-10-13T02:16:16;16.20;99.90
18882;DHT22;9573;50.948;11.600;2023-10-13T02:18:44;16.20;99.90
18882;DHT22;9573;50.948;11.600;2023-10-13T02:21:17;16.20;99.90
18882;DHT22;9573;50.948;11.600;2023-10-13T02:23:45;16.20;99.90
18882;DHT22;9573;50.948;11.600;2023-10-13T02:26:29;16.20;99.90
18882;DHT22;9573;50.948;11.600;2023-10-13T02:28:58;16.20;99.90
18882;DHT22;9573;50.948;11.600;2023-10-13T02:31:27;16.20;99.90
18882;DHT22;9573;50.948;11.600;2023-10-13T02:33:53;16.20;99.90
18882;DHT22;9573;50.948;11.600;2023-10-13T02:36:25;16.30;99.90
18882;DHT22;9573;50.948;11.600;2023-10-13T02:39:02;16.30;99.90
18882;DHT22;9573;50.948;11.600;2023-10-13T02:41:34;16.40;99.90
18882;DHT22;9573;50.948;11.600;2023-10-13T02:44:03;16.40;99.90
18882;DHT22;9573;50.948;11.600;2023-10-13T02:46:32;16.40;99.90
18882;DHT22;9573;50.948;11.600;2023-10-13T02:49:02;16.40;99.90
18882;DHT22;9573;50.948;11.600;2023-10-13T02:51:36;16.40;99.90
18882;DHT22;9573;50.948;11.600;2023-10-13T02:54:03;16.40;99.90
18882;DHT22;9573;50.948;11.600;2023-10-13T02:56:37;16.40;99.90
18882;DHT22;9573;50.948;11.600;2023-10-13T02:59:13;16.40;99.90
18882;DHT22;9573;50.948;11.600;2023-10-13T03:01:41;16.40;99.90
18882;DHT22;9573;50.948;11.600;2023-10-13T03:04:07;16.40;99.90
18882;DHT22;9573;50.948;11.600;2023-10-13T03:06:35;16.40;99.90
18882;DHT22;9573;50.948;11.600;2023-10-13T03:09:03;16.40;99.90
18882;DHT22;9573;50.948;11.600;2023-10-13T03:11:42;16.40;99.90
18882;DHT22;9573;50.948;11.600;2023-10-13T03:14:08;16.40;99.90
18882;DHT22;9573;50.948;11.600;2023-10-13T03:16:50;16.40;99.90
18882;DHT22;9573;50.948;11.600;2023-10-13T03:19:17;16.40;99.90
18882;DHT22;9573;50.948;11.600;2023-10-13T03:21:44;16.40;99.90
18882;DHT22;9573;50.948;11.600;2023-10-13T03:24:21;16.40;99.90
18882;DHT22;9573;50.948;11.600;2023-10-13T03:27:00;16.40;99.90
18882;DHT22;9573;50.948;11.600;2023-10-13T03:29:36;16.40;99.90
18882;DHT22;9573;50.948;11.600;2023-10-13T03:32:04;16.40;99.90
18882;DHT22;9573;50.948;11.600;2023-10-13T03:34:37;16.40;99.90
18882;DHT22;9573;50.948;11.600;2023-10-13T03:37:15;16.40;99.90
18882;DHT22;9573;50.948;11.600;2023-10-13T03:39:45;16.40;99.90
18882;DHT22;9573;50.948;11.600;2023-10-13T03:42:14;16.40;99.90
18882;DHT22;9573;50.948;11.600;2023-10-13T03:44:45;16.40;99.90
18882;DHT22;9573;50.948;11.600;2023-10-13T03:47:13;16.40;99.90
18882;DHT22;9573;50.948;11.600;2023-10-13T03:49:52;16.40;99.90
18882;DHT22;9573;50.948;11.600;2023-10-13T03:52:40;16.40;99.90
18882;DHT22;9573;50.948;11.600;2023-10-13T03:55:08;16.40;99.90
18882;DHT22;9573;50.948;11.600;2023-10-13T03:57:44;16.40;99.90
18882;DHT22;9573;50.948;11.600;2023-10-13T04:00:16;16.40;99.90
18882;DHT22;9573;50.948;11.600;2023-10-13T04:02:49;16.40;99.90
18882;DHT22;9573;50.948;11.600;2023-10-13T04:05:31;16.40;99.90
18882;DHT22;9573;50.948;11.600;2023-10-13T04:08:05;16.40;99.90
18882;DHT22;9573;50.948;11.600;2023-10-13T04:10:56;16.40;99.90
18882;DHT22;9573;50.948;11.600;2023-10-13T04:13:44;16.40;99.90
18882;DHT22;9573;50.948;11.600;2023-10-13T04:16:30;16.40;99.90
18882;DHT22;9573;50.948;11.600;2023-10-13T04:19:16;16.40;99.90
18882;DHT22;9573;50.948;11.600;2023-10-13T04:21:49;16.40;99.90
18882;DHT22;9573;50.948;11.600;2023-10-13T04:24:25;16.50;99.90
18882;DHT22;9573;50.948;11.600;2023-10-13T04:27:07;16.40;99.90
18882;DHT22;9573;50.948;11.600;2023-10-13T04:30:07;16.40;99.90
18882;DHT22;9573;50.948;11.600;2023-10-13T04:32:50;16.50;99.90
18882;DHT22;9573;50.948;11.600;2023-10-13T04:35:31;16.40;99.90
18882;DHT22;9573;50.948;11.600;2023-10-13T04:38:02;16.50;99.90
18882;DHT22;9573;50.948;11.600;2023-10-13T04:40:43;16.50;99.90
18882;DHT22;9573;50.948;11.600;2023-10-13T04:43:24;16.50;99.90
18882;DHT22;9573;50.948;11.600;2023-10-13T04:46:00;16.50;99.90
18882;DHT22;9573;50.948;11.600;2023-10-13T04:48:47;16.50;99.90
18882;DHT22;9573;50.948;11.600;2023-10-13T04:51:13;16.50;99.90
18882;DHT22;9573;50.948;11.600;2023-10-13T04:54:10;16.60;99.90
18882;DHT22;9573;50.948;11.600;2023-10-13T04:56:38;16.60;99.90
18882;DHT22;9573;50.948;11.600;2023-10-13T04:59:22;16.60;99.90
18882;DHT22;9573;50.948;11.600;2023-10-13T05:02:25;16.60;99.90
18882;DHT22;9573;50.948;11.600;2023-10-13T05:05:28;16.70;99.90
18882;DHT22;9573;50.948;11.600;2023-10-13T05:08:18;16.70;99.90
18882;DHT22;9573;50.948;11.600;2023-10-13T05:11:03;16.70;99.90
18882;DHT22;9573;50.948;11.600;2023-10-13T05:13:48;16.80;99.90
18882;DHT22;9573;50.948;11.600;2023-10-13T05:16:33;16.80;99.90
18882;DHT22;9573;50.948;11.600;2023-10-13T05:19:19;16.80;99.90
18882;DHT22;9573;50.948;11.600;2023-10-13T05:22:04;17.00;99.90
18882;DHT22;9573;50.948;11.600;2023-10-13T05:24:49;16.90;99.90
18882;DHT22;9573;50.948;11.600;2023-10-13T05:27:33;16.90;99.90
18882;DHT22;9573;50.948;11.600;2023-10-13T05:30:18;17.00;99.90
18882;DHT22;9573;50.948;11.600;2023-10-13T05:33:03;17.00;99.90
18882;DHT22;9573;50.948;11.600;2023-10-13T05:35:50;17.00;99.90
18882;DHT22;9573;50.948;11.600;2023-10-13T05:38:35;17.00;99.90
18882;DHT22;9573;50.948;11.600;2023-10-13T05:41:19;17.10;99.90
18882;DHT22;9573;50.948;11.600;2023-10-13T05:44:04;17.10;99.90
18882;DHT22;9573;50.948;11.600;2023-10-13T05:46:51;17.10;99.90
18882;DHT22;9573;50.948;11.600;2023-10-13T05:49:34;17.20;99.90
18882;DHT22;9573;50.948;11.600;2023-10-13T05:52:17;17.20;99.90
18882;DHT22;9573;50.948;11.600;2023-10-13T05:55:01;17.30;99.90
18882;DHT22;9573;50.948;11.600;2023-10-13T05:57:46;17.30;99.90
18882;DHT22;9573;50.948;11.600;2023-10-13T06:00:38;17.30;99.90
18882;DHT22;9573;50.948;11.600;2023-10-13T06:03:24;17.40;99.90
18882;DHT22;9573;50.948;11.600;2023-10-13T06:06:08;17.40;99.90
18882;DHT22;9573;50.948;11.600;2023-10-13T06:08:55;17.40;99.90
18882;DHT22;9573;50.948;11.600;2023-10-13T06:11:42;17.40;99.90
18882;DHT22;9573;50.948;11.600;2023-10-13T06:14:27;17.50;99.90
18882;DHT22;9573;50.948;11.600;2023-10-13T06:17:12;17.50;99.90
18882;DHT22;9573;50.948;11.600;2023-10-13T06:19:59;17.50;99.90
18882;DHT22;9573;50.948;11.600;2023-10-13T06:22:47;17.50;99.90
18882;DHT22;9573;50.948;11.600;2023-10-13T06:25:33;17.60;99.90
18882;DHT22;9573;50.948;11.600;2023-10-13T06:28:18;17.60;99.90
18882;DHT22;9573;50.948;11.600;2023-10-13T06:31:04;17.80;99.90
18882;DHT22;9573;50.948;11.600;2023-10-13T06:33:32;18.00;99.90
18882;DHT22;9573;50.948;11.600;2023-10-13T06:36:02;18.20;99.90
18882;DHT22;9573;50.948;11.600;2023-10-13T06:38:35;18.40;99.90
18882;DHT22;9573;50.948;11.600;2023-10-13T06:41:04;18.60;99.90
18882;DHT22;9573;50.948;11.600;2023-10-13T06:43:32;18.80;99.90
18882;DHT22;9573;50.948;11.600;2023-10-13T06:46:05;18.90;99.90
18882;DHT22;9573;50.948;11.600;2023-10-13T06:48:33;19.10;99.90
18882;DHT22;9573;50.948;11.600;2023-10-13T06:51:01;19.30;99.90
18882;DHT22;9573;50.948;11.600;2023-10-13T06:53:43;19.40;99.90
18882;DHT22;9573;50.948;11.600;2023-10-13T06:56:16;19.40;99.90
18882;DHT22;9573;50.948;11.600;2023-10-13T06:58:48;19.40;99.90
18882;DHT22;9573;50.948;11.600;2023-10-13T07:01:15;19.50;99.90
18882;DHT22;9573;50.948;11.600;2023-10-13T07:03:47;19.40;99.90
18882;DHT22;9573;50.948;11.600;2023-10-13T07:06:19;19.40;99.90
18882;DHT22;9573;50.948;11.600;2023-10-13T07:08:47;19.40;99.90
18882;DHT22;9573;50.948;11.600;2023-10-13T07:11:19;19.40;99.90
18882;DHT22;9573;50.948;11.600;2023-10-13T07:14:00;19.60;99.90
18882;DHT22;9573;50.948;11.600;2023-10-13T07:16:41;19.40;99.90
18882;DHT22;9573;50.948;11.600;2023-10-13T07:19:12;19.40;99.90
18882;DHT22;9573;50.948;11.600;2023-10-13T07:21:44;19.40;99.90
18882;DHT22;9573;50.948;11.600;2023-10-13T07:24:15;19.40;99.90
18882;DHT22;9573;50.948;11.600;2023-10-13T07:26:47;19.50;99.90
18882;DHT22;9573;50.948;11.600;2023-10-13T07:29:27;19.50;99.90
18882;DHT22;9573;50.948;11.600;2023-10-13T07:31:55;19.50;99.90
18882;DHT22;9573;50.948;11.600;2023-10-13T07:34:24;19.50;99.90
18882;DHT22;9573;50.948;11.600;2023-10-13T07:36:52;19.60;99.90
18882;DHT22;9573;50.948;11.600;2023-10-13T07:39:25;19.80;99.90
18882;DHT22;9573;50.948;11.600;2023-10-13T07:41:55;20.00;99.90
18882;DHT22;9573;50.948;11.600;2023-10-13T07:44:29;20.10;99.90
18882;DHT22;9573;50.948;11.600;2023-10-13T07:46:58;20.30;99.90
18882;DHT22;9573;50.948;11.600;2023-10-13T07:49:29;20.30;99.90
18882;DHT22;9573;50.948;11.600;2023-10-13T07:52:00;20.30;99.90
18882;DHT22;9573;50.948;11.600;2023-10-13T07:54:53;20.30;99.90
18882;DHT22;9573;50.948;11.600;2023-10-13T07:57:26;20.30;99.90
18882;DHT22;9573;50.948;11.600;2023-10-13T07:59:56;20.30;99.90
18882;DHT22;9573;50.948;11.600;2023-10-13T08:02:36;20.40;99.90
18882;DHT22;9573;50.948;11.600;2023-10-13T08:05:17;20.50;99.90
18882;DHT22;9573;50.948;11.600;2023-10-13T08:07:51;20.50;99.90
18882;DHT22;9573;50.948;11.600;2023-10-13T08:10:19;20.40;99.90
18882;DHT22;9573;50.948;11.600;2023-10-13T08:12:56;20.30;99.90
18882;DHT22;9573;50.948;11.600;2023-10-13T08:15:24;20.20;99.90
18882;DHT22;9573;50.948;11.600;2023-10-13T08:17:59;20.20;99.90
18882;DHT22;9573;50.948;11.600;2023-10-13T08:20:30;20.30;99.90
18882;DHT22;9573;50.948;11.600;2023-10-13T08:23:04;20.40;99.90
18882;DHT22;9573;50.948;11.600;2023-10-13T08:25:40;20.60;99.90
18882;DHT22;9573;50.948;11.600;2023-10-13T08:28:34;20.70;99.90
18882;DHT22;9573;50.948;11.600;2023-10-13T08:31:19;20.80;99.90
18882;DHT22;9573;50.948;11.600;2023-10-13T08:33:48;20.80;99.90
18882;DHT22;9573;50.948;11.600;2023-10-13T08:36:16;20.60;99.90
18882;DHT22;9573;50.948;11.600;2023-10-13T08:38:55;20.50;99.90
18882;DHT22;9573;50.948;11.600;2023-10-13T08:41:22;20.30;99.90
18882;DHT22;9573;50.948;11.600;2023-10-13T08:44:01;20.30;99.90
18882;DHT22;9573;50.948;11.600;2023-10-13T08:46:35;20.20;99.90
18882;DHT22;9573;50.948;11.600;2023-10-13T08:49:32;20.40;99.90
18882;DHT22;9573;50.948;11.600;2023-10-13T08:52:10;20.50;99.90
18882;DHT22;9573;50.948;11.600;2023-10-13T08:54:59;20.80;99.90
18882;DHT22;9573;50.948;11.600;2023-10-13T08:57:52;20.90;99.90
18882;DHT22;9573;50.948;11.600;2023-10-13T09:00:20;21.10;99.90
18882;DHT22;9573;50.948;11.600;2023-10-13T09:03:14;21.10;99.90
18882;DHT22;9573;50.948;11.600;2023-10-13T09:05:55;21.10;99.90
18882;DHT22;9573;50.948;11.600;2023-10-13T09:08:29;21.10;99.90
18882;DHT22;9573;50.948;11.600;2023-10-13T09:11:10;21.00;99.90
18882;DHT22;9573;50.948;11.600;2023-10-13T09:13:39;21.00;99.90
18882;DHT22;9573;50.948;11.600;2023-10-13T09:16:13;21.10;99.90
18882;DHT22;9573;50.948;11.600;2023-10-13T09:19:09;21.20;99.90
18882;DHT22;9573;50.948;11.600;2023-10-13T09:21:38;21.30;99.90
18882;DHT22;9573;50.948;11.600;2023-10-13T09:24:20;21.40;99.90
18882;DHT22;9573;50.948;11.600;2023-10-13T09:26:55;21.50;99.90
18882;DHT22;9573;50.948;11.600;2023-10-13T09:29:27;21.50;99.90
18882;DHT22;9573;50.948;11.600;2023-10-13T09:32:01;21.70;99.90
18882;DHT22;9573;50.948;11.600;2023-10-13T09:34:29;21.60;99.90
18882;DHT22;9573;50.948;11.600;2023-10-13T09:37:00;21.70;99.90
18882;DHT22;9573;50.948;11.600;2023-10-13T09:39:29;21.60;99.90
18882;DHT22;9573;50.948;11.600;2023-10-13T09:42:00;21.60;99.90
18882;DHT22;9573;50.948;11.600;2023-10-13T09:44:29;21.80;99.90
18882;DHT22;9573;50.948;11.600;2023-10-13T09:47:02;22.00;99.90
18882;DHT22;9573;50.948;11.600;2023-10-13T09:49:40;22.20;99.90
18882;DHT22;9573;50.948;11.600;2023-10-13T09:52:17;22.50;99.90
18882;DHT22;9573;50.948;11.600;2023-10-13T09:55:00;22.70;99.90
18882;DHT22;9573;50.948;11.600;2023-10-13T09:57:37;22.90;99.90
18882;DHT22;9573;50.948;11.600;2023-10-13T10:00:12;23.10;99.90
18882;DHT22;9573;50.948;11.600;2023-10-13T10:02:59;23.40;99.90
18882;DHT22;9573;50.948;11.600;2023-10-13T10:05:41;24.10;99.90
18882;DHT22;9573;50.948;11.600;2023-10-13T10:08:23;25.20;99.90
18882;DHT22;9573;50.948;11.600;2023-10-13T10:11:04;26.10;99.90
18882;DHT22;9573;50.948;11.600;2023-10-13T10:13:38;26.60;99.90
18882;DHT22;9573;50.948;11.600;2023-10-13T10:16:11;26.60;99.90
18882;DHT22;9573;50.948;11.600;2023-10-13T10:18:41;26.40;99.90
18882;DHT22;9573;50.948;11.600;2023-10-13T10:21:09;26.20;99.90
18882;DHT22;9573;50.948;11.600;2023-10-13T10:23:37;25.90;99.90
18882;DHT22;9573;50.948;11.600;2023-10-13T10:26:12;25.60;99.90
18882;DHT22;9573;50.948;11.600;2023-10-13T10:28:42;25.30;99.90
18882;DHT22;9573;50.948;11.600;2023-10-13T10:31:10;25.10;99.90
18882;DHT22;9573;50.948;11.600;2023-10-13T10:33:42;24.90;99.90
18882;DHT22;9573;50.948;11.600;2023-10-13T10:36:10;24.80;99.90
18882;DHT22;9573;50.948;11.600;2023-10-13T10:38:52;24.70;99.90
18882;DHT22;9573;50.948;11.600;2023-10-13T10:41:26;24.60;99.90
18882;DHT22;9573;50.948;11.600;2023-10-13T10:44:10;24.50;99.90
18882;DHT22;9573;50.948;11.600;2023-10-13T10:46:41;24.60;99.90
18882;DHT22;9573;50.948;11.600;2023-10-13T10:49:19;24.80;99.90
18882;DHT22;9573;50.948;11.600;2023-10-13T10:51:58;25.10;99.90
18882;DHT22;9573;50.948;11.600;2023-10-13T10:54:29;25.50;99.90
18882;DHT22;9573;50.948;11.600;2023-10-13T10:56:58;25.70;99.90
18882;DHT22;9573;50.948;11.600;2023-10-13T10:59:37;25.80;99.90
18882;DHT22;9573;50.948;11.600;2023-10-13T11:02:05;25.70;99.90
18882;DHT22;9573;50.948;11.600;2023-10-13T11:04:35;25.70;99.90
18882;DHT22;9573;50.948;11.600;2023-10-13T11:07:21;25.80;99.90
18882;DHT22;9573;50.948;11.600;2023-10-13T11:09:49;26.00;99.90
18882;DHT22;9573;50.948;11.600;2023-10-13T11:12:19;26.10;99.90
18882;DHT22;9573;50.948;11.600;2023-10-13T11:15:03;26.20;99.90
18882;DHT22;9573;50.948;11.600;2023-10-13T11:17:40;26.50;99.90
18882;DHT22;9573;50.948;11.600;2023-10-13T11:20:19;26.70;99.90
18882;DHT22;9573;50.948;11.600;2023-10-13T11:22:59;27.00;99.90
18882;DHT22;9573;50.948;11.600;2023-10-13T11:25:32;27.10;99.90
18882;DHT22;9573;50.948;11.600;2023-10-13T11:28:10;27.50;99.90
18882;DHT22;9573;50.948;11.600;2023-10-13T11:30:43;27.80;99.90
18882;DHT22;9573;50.948;11.600;2023-10-13T11:33:15;28.10;99.90
18882;DHT22;9573;50.948;11.600;2023-10-13T11:35:48;28.60;99.90
18882;DHT22;9573;50.948;11.600;2023-10-13T11:38:22;28.60;99.90
18882;DHT22;9573;50.948;11.600;2023-10-13T11:40:58;28.70;99.90
18882;DHT22;9573;50.948;11.600;2023-10-13T11:43:35;29.30;99.90
18882;DHT22;9573;50.948;11.600;2023-10-13T11:46:19;30.10;99.90
18882;DHT22;9573;50.948;11.600;2023-10-13T11:49:01;30.50;99.90
18882;DHT22;9573;50.948;11.600;2023-10-13T11:51:45;31.40;99.90
18882;DHT22;9573;50.948;11.600;2023-10-13T11:54:13;31.90;97.90
18882;DHT22;9573;50.948;11.600;2023-10-13T11:56:41;32.10;95.60
18882;DHT22;9573;50.948;11.600;2023-10-13T11:59:08;32.00;94.70
18882;DHT22;9573;50.948;11.600;2023-10-13T12:01:43;32.10;94.50
18882;DHT22;9573;50.948;11.600;2023-10-13T12:04:28;32.50;92.60
18882;DHT22;9573;50.948;11.600;2023-10-13T12:07:10;32.40;90.10
18882;DHT22;9573;50.948;11.600;2023-10-13T12:09:43;31.30;91.40
18882;DHT22;9573;50.948;11.600;2023-10-13T12:12:29;30.50;92.30
18882;DHT22;9573;50.948;11.600;2023-10-13T12:14:59;30.10;93.00
18882;DHT22;9573;50.948;11.600;2023-10-13T12:17:34;29.90;92.60
18882;DHT22;9573;50.948;11.600;2023-10-13T12:20:06;29.90;93.40
18882;DHT22;9573;50.948;11.600;2023-10-13T12:22:37;30.70;92.90
18882;DHT22;9573;50.948;11.600;2023-10-13T12:25:05;31.70;90.50
18882;DHT22;9573;50.948;11.600;2023-10-13T12:27:45;32.30;89.30
18882;DHT22;9573;50.948;11.600;2023-10-13T12:30:14;32.10;88.10
18882;DHT22;9573;50.948;11.600;2023-10-13T12:32:48;30.90;89.30
18882;DHT22;9573;50.948;11.600;2023-10-13T12:35:25;29.80;90.90
18882;DHT22;9573;50.948;11.600;2023-10-13T12:37:57;29.50;91.60
18882;DHT22;9573;50.948;11.600;2023-10-13T12:40:31;30.10;91.00
18882;DHT22;9573;50.948;11.600;2023-10-13T12:43:16;30.40;90.80
18882;DHT22;9573;50.948;11.600;2023-10-13T12:46:00;31.00;88.30
18882;DHT22;9573;50.948;11.600;2023-10-13T12:48:45;31.50;86.30
18882;DHT22;9573;50.948;11.600;2023-10-13T12:51:41;31.60;84.60
18882;DHT22;9573;50.948;11.600;2023-10-13T12:54:18;31.20;81.70
18882;DHT22;9573;50.948;11.600;2023-10-13T12:56:53;30.50;81.10
18882;DHT22;9573;50.948;11.600;2023-10-13T12:59:22;29.90;82.60
18882;DHT22;9573;50.948;11.600;2023-10-13T13:01:52;29.40;83.10
18882;DHT22;9573;50.948;11.600;2023-10-13T13:04:20;28.80;83.30
18882;DHT22;9573;50.948;11.600;2023-10-13T13:06:47;28.50;85.20
18882;DHT22;9573;50.948;11.600;2023-10-13T13:09:16;28.50;85.20
18882;DHT22;9573;50.948;11.600;2023-10-13T13:11:51;28.50;85.10
18882;DHT22;9573;50.948;11.600;2023-10-13T13:14:22;28.60;84.60
18882;DHT22;9573;50.948;11.600;2023-10-13T13:16:54;29.00;85.10
18882;DHT22;9573;50.948;11.600;2023-10-13T13:19:24;29.30;82.70
18882;DHT22;9573;50.948;11.600;2023-10-13T13:21:51;29.40;81.30
18882;DHT22;9573;50.948;11.600;2023-10-13T13:24:20;29.30;81.60
18882;DHT22;9573;50.948;11.600;2023-10-13T13:26:49;29.50;82.00
18882;DHT22;9573;50.948;11.600;2023-10-13T13:29:20;29.70;81.20
18882;DHT22;9573;50.948;11.600;2023-10-13T13:31:47;29.50;81.20
18882;DHT22;9573;50.948;11.600;2023-10-13T13:34:15;29.60;81.30
18882;DHT22;9573;50.948;11.600;2023-10-13T13:36:45;29.40;81.10
18882;DHT22;9573;50.948;11.600;2023-10-13T13:39:19;28.80;81.50
18882;DHT22;9573;50.948;11.600;2023-10-13T13:41:54;28.80;82.40
18882;DHT22;9573;50.948;11.600;2023-10-13T13:44:23;28.90;82.70
18882;DHT22;9573;50.948;11.600;2023-10-13T13:46:55;28.80;83.10
18882;DHT22;9573;50.948;11.600;2023-10-13T13:49:23;28.50;83.00
18882;DHT22;9573;50.948;11.600;2023-10-13T13:52:05;28.00;83.90
18882;DHT22;9573;50.948;11.600;2023-10-13T13:54:34;27.40;85.50
18882;DHT22;9573;50.948;11.600;2023-10-13T13:57:01;27.20;86.50
18882;DHT22;9573;50.948;11.600;2023-10-13T13:59:29;26.90;86.90
18882;DHT22;9573;50.948;11.600;2023-10-13T14:02:00;26.70;87.60
18882;DHT22;9573;50.948;11.600;2023-10-13T14:04:32;26.50;87.80
18882;DHT22;9573;50.948;11.600;2023-10-13T14:07:00;26.70;87.70
18882;DHT22;9573;50.948;11.600;2023-10-13T14:09:33;27.00;87.10
18882;DHT22;9573;50.948;11.600;2023-10-13T14:12:06;27.20;86.60
18882;DHT22;9573;50.948;11.600;2023-10-13T14:14:50;27.20;85.00
18882;DHT22;9573;50.948;11.600;2023-10-13T14:17:21;27.10;85.10
18882;DHT22;9573;50.948;11.600;2023-10-13T14:19:55;27.00;85.80
18882;DHT22;9573;50.948;11.600;2023-10-13T14:22:23;26.80;85.30
18882;DHT22;9573;50.948;11.600;2023-10-13T14:24:53;26.60;86.00
18882;DHT22;9573;50.948;11.600;2023-10-13T14:27:21;26.50;86.20
18882;DHT22;9573;50.948;11.600;2023-10-13T14:29:51;26.60;86.60
18882;DHT22;9573;50.948;11.600;2023-10-13T14:32:20;26.60;86.10
18882;DHT22;9573;50.948;11.600;2023-10-13T14:34:52;26.60;86.40
18882;DHT22;9573;50.948;11.600;2023-10-13T14:37:23;26.40;86.70
18882;DHT22;9573;50.948;11.600;2023-10-13T14:39:57;26.20;86.80
18882;DHT22;9573;50.948;11.600;2023-10-13T14:42:25;26.00;86.90
18882;DHT22;9573;50.948;11.600;2023-10-13T14:44:54;25.80;87.50
18882;DHT22;9573;50.948;11.600;2023-10-13T14:47:24;25.70;87.90
18882;DHT22;9573;50.948;11.600;2023-10-13T14:49:53;25.60;87.40
18882;DHT22;9573;50.948;11.600;2023-10-13T14:52:25;25.50;88.10
18882;DHT22;9573;50.948;11.600;2023-10-13T14:54:57;25.50;88.40
18882;DHT22;9573;50.948;11.600;2023-10-13T14:57:25;25.40;88.70
18882;DHT22;9573;50.948;11.600;2023-10-13T14:59:53;25.30;88.90
18882;DHT22;9573;50.948;11.600;2023-10-13T15:02:20;25.20;89.50
18882;DHT22;9573;50.948;11.600;2023-10-13T15:04:48;25.20;90.00
18882;DHT22;9573;50.948;11.600;2023-10-13T15:07:19;25.10;90.00
18882;DHT22;9573;50.948;11.600;2023-10-13T15:09:53;24.90;90.20
18882;DHT22;9573;50.948;11.600;2023-10-13T15:12:24;24.80;90.40
18882;DHT22;9573;50.948;11.600;2023-10-13T15:14:51;24.80;90.60
18882;DHT22;9573;50.948;11.600;2023-10-13T15:17:18;24.70;90.80
18882;DHT22;9573;50.948;11.600;2023-10-13T15:19:49;24.70;91.00
18882;DHT22;9573;50.948;11.600;2023-10-13T15:22:16;24.60;91.00
18882;DHT22;9573;50.948;11.600;2023-10-13T15:24:51;24.50;91.00
18882;DHT22;9573;50.948;11.600;2023-10-13T15:27:35;24.50;91.00
18882;DHT22;9573;50.948;11.600;2023-10-13T15:30:07;24.40;91.10
18882;DHT22;9573;50.948;11.600;2023-10-13T15:32:46;24.40;91.00
18882;DHT22;9573;50.948;11.600;2023-10-13T15:35:14;24.30;91.00
18882;DHT22;9573;50.948;11.600;2023-10-13T15:37:42;24.30;91.20
18882;DHT22;9573;50.948;11.600;2023-10-13T15:40:13;24.30;90.70
18882;DHT22;9573;50.948;11.600;2023-10-13T15:42:44;24.30;90.90
18882;DHT22;9573;50.948;11.600;2023-10-13T15:45:12;24.30;91.10
18882;DHT22;9573;50.948;11.600;2023-10-13T15:47:47;24.20;91.20
18882;DHT22;9573;50.948;11.600;2023-10-13T15:50:15;24.10;91.10
18882;DHT22;9573;50.948;11.600;2023-10-13T15:52:46;24.00;91.30
18882;DHT22;9573;50.948;11.600;2023-10-13T15:55:14;23.90;91.20
18882;DHT22;9573;50.948;11.600;2023-10-13T15:57:44;23.90;91.00
18882;DHT22;9573;50.948;11.600;2023-10-13T16:00:18;23.90;91.10
18882;DHT22;9573;50.948;11.600;2023-10-13T16:02:52;23.90;91.20
18882;DHT22;9573;50.948;11.600;2023-10-13T16:05:20;23.80;91.70
18882;DHT22;9573;50.948;11.600;2023-10-13T16:07:50;23.70;91.90
18882;DHT22;9573;50.948;11.600;2023-10-13T16:10:21;23.60;92.10
18882;DHT22;9573;50.948;11.600;2023-10-13T16:12:50;23.50;92.20
18882;DHT22;9573;50.948;11.600;2023-10-13T16:15:17;23.40;92.10
18882;DHT22;9573;50.948;11.600;2023-10-13T16:17:44;23.30;92.00